Sunday, August 28, 2016
18:55 UTC
  |  Log In   |  Register Free
Airport Search:

Pearson Field Airport
(KVUO)

Pearson Field Airport Diagram
No Airport Diagram Available

FAA data valid effective Jul 21 2016 - Sep 15 2016 (unless otherwise noted).

 
 
 
 
 
 
 
 
 
 
 
 
 
 
Current Aviation Weather for KVUO

Weather Summary


The most recent METAR observation for VUO was updated at: 12:53 UTC
METAR for VUO is not available. Closest METAR is for
METAR

METAR KVUO 281753Z VRB05KT 10SM CLR 18/12 A3006 RMK AO2 SLP179 T01830122 10189 20122 58002

METAR KVUO 281653Z 30005KT 10SM CLR 18/12 A3007 RMK AO2 SLP181 T01830122

METAR KVUO 281553Z 27003KT 10SM FEW015 16/12 A3007 RMK AO2 SLP182 T01610117

METAR KHIO 281753Z 13004KT 10SM CLR 19/12 A3006 RMK AO2 SLP177 T01890117 10189 20100 58002

METAR KKLS 281756Z VRB03KT 10SM CLR 19/12 A3007 RMK AO2 SLP187 T01940117 10194 20150 58002

METAR KMMV 281753Z 00000KT 10SM CLR 19/12 A3007 RMK AO2 SLP181 T01940117 10194 20106 58003

TAF for VUO is not available.
TAF

KPDX - TAF KPDX 281742Z 2818/2918 33005KT P6SM SCT018 SCT250

KPDX - FM282300 34009KT P6SM SKC

KPDX - FM290400 34006KT P6SM SCT060 =

KTTD - TAF KTTD 281742Z 2818/2918 VRB03KT P6SM SKC

KTTD - FM282100 32005KT P6SM SCT060 =

KHIO - TAF KHIO 281742Z 2818/2918 VRB03KT P6SM FEW020

KHIO - FM282000 VRB03KT P6SM SCT060

KHIO - FM290200 32005KT P6SM SCT060 =

GlobalAir.com is loading additional information.
 Current Weather at VUO
65.0 F° (18.3 C°)

Northwest winds at 5.8 mph
Pressure:
30.07 in
Humidity:
68%
Wind:
Northwest at 5.8 mph
Dew Point:
54.0 F° (12.2 C°)
Visibility:
10.00 mi
VUO NOAA Radar




Find All Airport Services Find A Hotel Find A Rental Car Find A Golf Course Find A Restaurant $100 Hamburger



Airport Weather Forecast for KVUO

Translated METAR for KVUO (1753 UTC)
METAR:
KVUO 281753Z AUTO Pearson Field, Vancouver, WA (KVUO). Aug 28, 1753Z, Automated. Wind is variable at 5 knots, 10 statute miles visibility, Clear Skies, Temperature 18°C, Dewpoint 12°C, Altimeter is 30.06. Remarks: automated station with precipitation discriminator sea level pressure 1017.9 hectopascals hourly temp 18.3°C dewpoint 12.2°C 6-hour max temp 18.9°C 6-hour min temp 12.2°C 3-hour atmospheric pressure steady or increasing, then decreasing; or decreasing then decreasing more rapidly by 0.2 hectopascals
Conditions at:
KVUO (Pearson Field, WA) observed 1753 UTC 28 August 2016
Temperature:
65.0 F° (18.3 C°)
Dewpoint:
not reported - refer to area weather report
Pressure:
30.07 Hg
Winds:
not reported
Visibility:
10.00
Ceiling:
at least 12,000 feet AGL
Clouds:
not reported - refer to area weather report
Remarks:
site is un-manned

Translated TAF for TAF for VUO is not available. Refer to local area forecast.
FBO's on the Field
FBO Company Facility Photos Services Transportation Aviation Fuel Prices: Prices include tax
Catering Weather Repair Courtesy Rental Type 100LL JetA JetA+ MOGAS 8087
 
Aero Maintenance Inc

This FBO has not yet been rated
FS:Epic
Last Updated: Jul-26
Login to update fuel prices
SS:
Contact Aero Maintenance IncMore FBO Information
 
Add another FBO Facility Photos Catering Weather Repair Courtesy Rental Type 100LL JetA JetA+ MOGAS 8087
Services Transportation Aviation Fuel Prices: Prices include tax


model-print
model-print
model-print
model-print